CheckWX is a tool to help pilots better visualize weather data.  It is not intended as a substitute for an official pre-flight weather briefing.

10:53:36 UTC

KLUK METAR
Cincinnati Municipal Lunken Field Airport
Cincinnati, Ohio, USA
Current

1 hour ago

KLUK 140953Z AUTO 18004KT 10SM CLR 09/04 A3004 RMK AO2 SLP170 T00890044
Observed
Oct-14 @ 09:53 UTC
Wind
  • 180° at 4 KTS
Visibility
10 SM
Flight Rules
VFR
Cloud Levels
  • Clear skies
Temperature
C / 48°F
Dewpoint
C / 39°F
Humidity
71%
Altimeter
30.04" Hg
Pressure
1017.32 hPa
Previous

2 hours ago

KLUK 140853Z AUTO 00000KT 10SM CLR 08/04 A3002 RMK AO2 SLP164 T00780044 53009
Observed
Oct-14 @ 08:53 UTC
Visibility
10 SM
Flight Rules
VFR
Cloud Levels
  • Clear skies
Temperature
C / 46°F
Dewpoint
C / 39°F
Humidity
76%
Altimeter
30.02" Hg
Pressure
1016.62 hPa
Previous

3 hours ago

KLUK 140753Z AUTO 21005KT 10SM CLR 08/04 A3000 RMK AO2 SLP158 T00830044
Observed
Oct-14 @ 07:53 UTC
Wind
  • 210° at 5 KTS
Visibility
10 SM
Flight Rules
VFR
Cloud Levels
  • Clear skies
Temperature
C / 46°F
Dewpoint
C / 39°F
Humidity
76%
Altimeter
30" Hg
Pressure
1015.92 hPa